Time;durP1;ratioP1;P1;durP2;ratioP2;P2;SDS_P1;SDS_P2;PMS_P1;PMS_P2;Temp;Humidity;BMP_temperature;BMP_pressure;BME280_temperature;BME280_humidity;BME280_pressure;Samples;Min_cycle;Max_cycle;Signal;HPM_P1;HPM_P2
2021/10/31 00:02:55;;;;;;;65.50;25.00;;;;;;;8.75;55.75;98531.13;459317;1195;107595;-42
2021/10/31 00:13:03;;;;;;;42.20;21.40;;;;;;;8.43;55.90;98524.90;459307;1195;99045;-40
2021/10/31 00:23:09;;;;;;;32.60;19.10;;;;;;;8.38;56.43;98540.11;459490;1195;99025;-41
2021/10/31 00:33:16;;;;;;;37.20;19.90;;;;;;;8.51;56.44;98548.03;459693;1195;112026;-41
2021/10/31 00:43:23;;;;;;;39.00;20.30;;;;;;;8.57;56.60;98539.48;460164;1193;108604;-41
2021/10/31 00:53:32;;;;;;;37.30;20.40;;;;;;;8.69;57.23;98525.55;459811;1195;99134;-41
2021/10/31 01:03:38;;;;;;;44.50;20.90;;;;;;;8.76;57.19;98546.66;459840;1195;112207;-41
2021/10/31 01:13:46;;;;;;;32.40;17.80;;;;;;;8.69;57.08;98556.77;459671;1194;108707;-41
2021/10/31 01:24:05;;;;;;;31.40;18.70;;;;;;;8.49;57.41;98541.95;459603;1194;98640;-41
2021/10/31 01:34:13;;;;;;;29.50;16.10;;;;;;;8.42;57.75;98548.81;459278;1194;99073;-40
2021/10/31 01:44:25;;;;;;;25.70;14.20;;;;;;;8.49;57.98;98546.48;459679;1194;107896;-43
2021/10/31 01:54:37;;;;;;;31.10;18.10;;;;;;;8.54;58.16;98550.66;459684;1194;99042;-41
2021/10/31 02:04:45;;;;;;;28.70;15.90;;;;;;;8.53;58.24;98560.89;460304;1173;111621;-39
2021/10/31 02:14:55;;;;;;;31.20;17.20;;;;;;;8.51;58.45;98560.77;458832;1196;110829;-40
2021/10/31 02:25:02;;;;;;;25.50;15.50;;;;;;;8.51;58.86;98568.27;459501;1194;99025;-42
2021/10/31 02:35:27;;;;;;;31.20;16.20;;;;;;;8.44;58.85;98576.85;459406;1195;99057;-41
2021/10/31 02:45:35;;;;;;;23.80;15.10;;;;;;;8.29;59.13;98564.92;459366;1195;112340;-42
2021/10/31 02:55:48;;;;;;;21.00;12.60;;;;;;;8.38;59.46;98559.47;459618;1197;108520;-42
2021/10/31 03:16:02;;;;;;;27.20;14.80;;;;;;;8.81;59.79;98554.92;459560;1195;112036;-43
2021/10/31 03:26:10;;;;;;;27.80;15.70;;;;;;;8.82;59.98;98557.34;459261;1197;108287;-41
2021/10/31 03:36:17;;;;;;;22.70;14.40;;;;;;;8.78;60.03;98566.23;459328;1194;99097;-41
2021/10/31 03:46:24;;;;;;;27.50;15.50;;;;;;;8.70;60.24;98579.73;459150;1197;112762;-41
2021/10/31 03:56:31;;;;;;;26.50;14.90;;;;;;;8.62;60.41;98580.98;459533;1195;107658;-42
2021/10/31 04:06:38;;;;;;;22.00;13.50;;;;;;;8.72;60.68;98572.85;459491;1197;107351;-41
2021/10/31 04:16:43;;;;;;;20.80;13.70;;;;;;;8.94;61.05;98568.52;459218;1196;98730;-40
2021/10/31 04:26:50;;;;;;;26.50;15.20;;;;;;;9.06;60.78;98573.05;459607;1197;108237;-42
2021/10/31 04:36:57;;;;;;;24.20;14.10;;;;;;;8.91;60.78;98578.72;459275;1197;99041;-41
2021/10/31 04:47:03;;;;;;;25.10;15.30;;;;;;;8.84;61.04;98584.70;459461;1197;111862;-42
2021/10/31 04:57:11;;;;;;;27.20;15.00;;;;;;;8.81;61.15;98582.66;459382;1197;108457;-40
2021/10/31 05:07:18;;;;;;;22.50;12.20;;;;;;;8.84;61.36;98577.89;458837;1197;99034;-41
2021/10/31 05:17:25;;;;;;;24.60;14.10;;;;;;;8.89;61.20;98581.27;459330;1197;108538;-41
2021/10/31 05:37:41;;;;;;;28.50;16.60;;;;;;;8.63;61.23;98595.98;459607;1196;112216;-41
2021/10/31 05:47:49;;;;;;;24.10;15.30;;;;;;;8.35;61.36;98608.01;459549;1195;108517;-42
2021/10/31 05:57:56;;;;;;;28.70;16.20;;;;;;;8.02;61.70;98606.30;459647;1196;108472;-40
2021/10/31 06:08:03;;;;;;;27.90;14.60;;;;;;;7.99;61.95;98612.80;459537;1195;98677;-40
2021/10/31 06:18:11;;;;;;;24.80;13.70;;;;;;;8.25;62.20;98617.08;459305;1197;108604;-40
2021/10/31 06:28:18;;;;;;;24.60;15.20;;;;;;;8.58;61.91;98618.24;459123;1197;98618;-40
2021/10/31 06:38:25;;;;;;;25.90;16.30;;;;;;;8.78;61.87;98619.15;459574;1195;112626;-40
2021/10/31 06:48:32;;;;;;;22.10;14.60;;;;;;;9.00;61.72;98622.65;459115;1197;108512;-40
2021/10/31 06:58:40;;;;;;;29.30;13.90;;;;;;;10.10;61.02;98627.80;459234;1197;99085;-41
2021/10/31 07:08:47;;;;;;;15.80;10.30;;;;;;;11.67;59.75;98628.39;459378;1194;112227;-40
2021/10/31 07:18:55;;;;;;;15.40;10.00;;;;;;;13.34;57.38;98629.55;459040;1194;108437;-40
2021/10/31 07:29:02;;;;;;;14.20;10.70;;;;;;;15.17;55.83;98629.09;459142;1195;99029;-43
2021/10/31 07:39:11;;;;;;;18.00;10.50;;;;;;;16.44;53.57;98620.36;459390;1194;111485;-41
2021/10/31 07:49:19;;;;;;;13.40;9.40;;;;;;;17.09;51.61;98612.59;459326;1196;108558;-40
2021/10/31 08:09:34;;;;;;;14.80;8.60;;;;;;;17.61;47.97;98602.38;459287;1195;108519;-41
2021/10/31 08:19:41;;;;;;;12.90;8.40;;;;;;;17.27;46.99;98605.90;459417;1194;98690;-42
2021/10/31 08:29:50;;;;;;;13.50;8.90;;;;;;;16.62;45.78;98602.48;459082;1195;112397;-42
2021/10/31 08:39:56;;;;;;;23.40;9.40;;;;;;;16.42;45.94;98606.66;459378;1194;108708;-42
2021/10/31 08:50:04;;;;;;;13.30;8.50;;;;;;;16.50;45.51;98602.21;459283;1194;99137;-42
2021/10/31 09:00:13;;;;;;;14.90;9.60;;;;;;;16.47;45.18;98598.11;459422;1197;108537;-41
2021/10/31 09:10:24;;;;;;;12.20;8.60;;;;;;;16.52;44.81;98590.67;459665;1194;99022;-41
2021/10/31 09:20:33;;;;;;;14.30;8.30;;;;;;;16.61;43.96;98583.52;459329;1194;112893;-41
2021/10/31 09:30:42;;;;;;;12.60;8.60;;;;;;;16.58;43.92;98584.65;459772;1194;108543;-41
2021/10/31 09:40:50;;;;;;;11.10;8.70;;;;;;;16.48;43.36;98582.63;459758;1194;99031;-41
2021/10/31 10:01:19;;;;;;;11.90;6.90;;;;;;;16.77;42.83;98578.98;459723;1195;99018;-41
2021/10/31 10:21:34;;;;;;;10.70;7.50;;;;;;;16.95;41.84;98563.11;459370;1194;108823;-41
2021/10/31 10:31:40;;;;;;;8.90;6.50;;;;;;;17.14;41.32;98554.81;459831;1195;98636;-41
2021/10/31 11:02:26;;;;;;;9.20;6.30;;;;;;;17.30;39.89;98523.80;459410;1194;111691;-41
2021/10/31 11:12:32;;;;;;;8.90;6.00;;;;;;;17.45;39.78;98511.95;459514;1194;108491;-41
2021/10/31 11:22:44;;;;;;;9.90;7.80;;;;;;;17.59;39.83;98497.96;459244;1194;99046;-41
2021/10/31 11:33:12;;;;;;;14.90;7.20;;;;;;;17.54;38.55;98491.11;459454;1195;108490;-41
2021/10/31 11:43:23;;;;;;;14.70;6.90;;;;;;;17.51;38.39;98481.86;459692;1194;99041;-42
2021/10/31 11:53:32;;;;;;;17.00;6.50;;;;;;;17.56;38.94;98466.18;459467;1194;112327;-41
2021/10/31 12:23:55;;;;;;;10.50;7.00;;;;;;;17.58;38.04;98443.75;459351;1195;112104;-40
2021/10/31 12:34:25;;;;;;;11.70;7.60;;;;;;;17.59;38.32;98431.83;459386;1194;108542;-41
2021/10/31 12:44:36;;;;;;;10.60;6.80;;;;;;;17.58;38.06;98423.75;459472;1194;99052;-40
2021/10/31 12:55:01;;;;;;;13.60;7.30;;;;;;;17.50;37.98;98416.70;459596;1196;108813;-40
2021/10/31 13:05:08;;;;;;;11.60;7.80;;;;;;;17.46;38.29;98405.55;459935;1197;99039;-41
2021/10/31 13:15:18;;;;;;;12.50;6.60;;;;;;;17.46;38.76;98395.71;459701;1194;111687;-41
2021/10/31 13:25:30;;;;;;;9.90;5.90;;;;;;;17.46;38.33;98398.34;459704;1194;108519;-41
2021/10/31 13:35:44;;;;;;;15.20;6.40;;;;;;;17.42;38.32;98396.98;459231;1194;99071;-40
2021/10/31 13:45:58;;;;;;;12.40;7.20;;;;;;;17.41;38.48;98395.44;459694;1195;108534;-42
2021/10/31 13:56:07;;;;;;;10.00;6.80;;;;;;;17.32;38.70;98379.53;459071;1194;99056;-40
2021/10/31 14:06:20;;;;;;;9.70;6.50;;;;;;;17.28;38.73;98372.09;459545;1194;111228;-41
2021/10/31 14:26:32;;;;;;;14.10;8.20;;;;;;;16.84;39.26;98360.73;459482;1194;99043;-41
2021/10/31 14:36:40;;;;;;;14.90;8.40;;;;;;;16.55;39.25;98351.38;458877;1194;112220;-41
2021/10/31 14:46:51;;;;;;;16.30;7.40;;;;;;;16.22;39.02;98349.05;459222;1194;108653;-40
2021/10/31 14:57:04;;;;;;;21.50;8.30;;;;;;;15.80;39.54;98351.84;459452;1194;99073;-41
2021/10/31 15:17:21;;;;;;;28.60;10.80;;;;;;;14.98;40.40;98349.45;459407;1195;108647;-40
2021/10/31 15:27:30;;;;;;;26.50;14.40;;;;;;;14.57;40.97;98345.07;459708;1194;98640;-42
2021/10/31 15:37:37;;;;;;;31.30;15.60;;;;;;;14.11;41.41;98337.75;459604;1194;112136;-41
2021/10/31 15:47:46;;;;;;;24.50;14.80;;;;;;;13.89;41.89;98333.17;459515;1194;108527;-40
2021/10/31 15:57:53;;;;;;;23.10;15.10;;;;;;;13.75;42.32;98325.14;459616;1195;98624;-41
2021/10/31 16:08:02;;;;;;;41.00;21.10;;;;;;;13.63;42.53;98322.98;459807;1194;114093;-41
2021/10/31 16:18:14;;;;;;;55.30;27.40;;;;;;;13.49;42.84;98322.63;459232;1195;108173;-41
2021/10/31 16:28:22;;;;;;;69.40;31.40;;;;;;;13.04;43.27;98322.64;459759;1194;99028;-41
2021/10/31 16:38:48;;;;;;;58.10;28.50;;;;;;;12.45;43.82;98326.83;459498;1194;112435;-41
2021/10/31 17:09:24;;;;;;;38.00;21.10;;;;;;;12.09;45.93;98314.35;459748;1194;108538;-42
2021/10/31 17:19:31;;;;;;;31.30;18.70;;;;;;;12.05;46.62;98307.34;459608;1194;99135;-41
2021/10/31 17:29:38;;;;;;;32.50;19.90;;;;;;;11.86;47.03;98301.75;459565;1195;112153;-41
2021/10/31 17:40:03;;;;;;;38.10;21.90;;;;;;;11.62;47.44;98296.46;459500;1194;107778;-41
2021/10/31 17:50:30;;;;;;;38.00;21.70;;;;;;;11.35;48.00;98289.15;459330;1195;99032;-41
2021/10/31 18:00:40;;;;;;;35.90;19.90;;;;;;;11.06;48.48;98278.83;459930;1195;112752;-44
2021/10/31 18:10:48;;;;;;;30.00;15.70;;;;;;;10.85;49.01;98266.22;459633;1194;108312;-41
2021/10/31 18:20:55;;;;;;;30.80;18.70;;;;;;;10.74;49.53;98256.27;459677;1194;99066;-41
2021/10/31 18:41:08;;;;;;;48.00;25.20;;;;;;;10.45;50.63;98238.68;459683;1194;108632;-41
2021/10/31 18:51:14;;;;;;;47.30;23.40;;;;;;;10.28;51.03;98234.63;459373;1194;98624;-41
2021/10/31 19:01:21;;;;;;;56.40;27.10;;;;;;;10.17;51.55;98234.06;459273;1187;112187;-41
2021/10/31 19:11:47;;;;;;;54.60;29.60;;;;;;;9.98;51.75;98220.69;459763;1194;108770;-40
2021/10/31 19:21:56;;;;;;;81.70;42.40;;;;;;;9.67;52.45;98207.03;459505;1194;99081;-41
2021/10/31 19:32:02;;;;;;;91.60;45.50;;;;;;;9.37;53.13;98199.50;459439;1194;110865;-41
2021/10/31 19:42:11;;;;;;;80.40;41.30;;;;;;;9.10;53.82;98195.02;459523;1196;108611;-41
2021/10/31 19:52:18;;;;;;;93.20;45.50;;;;;;;8.99;54.46;98179.95;459629;1194;108638;-41
2021/10/31 20:02:27;;;;;;;105.40;50.70;;;;;;;8.87;55.00;98177.36;459491;1187;99607;-41
2021/10/31 20:12:36;;;;;;;114.50;57.20;;;;;;;8.71;55.49;98169.69;459451;1194;112223;-44
2021/10/31 20:32:50;;;;;;;72.00;37.30;;;;;;;8.37;56.93;98148.95;459518;1194;99051;-40
2021/10/31 20:42:57;;;;;;;75.10;41.10;;;;;;;8.25;57.01;98138.83;459499;1194;112030;-41
2021/10/31 20:53:05;;;;;;;86.60;42.30;;;;;;;8.07;57.56;98138.01;459610;1198;108701;-41
2021/10/31 21:03:13;;;;;;;88.90;42.20;;;;;;;7.97;58.28;98127.65;459325;1194;99697;-40
2021/10/31 21:13:24;;;;;;;83.20;43.10;;;;;;;7.94;58.61;98119.10;459691;1194;112117;-41
2021/10/31 21:23:32;;;;;;;91.60;46.40;;;;;;;7.87;58.79;98110.71;459397;1195;109283;-41
2021/10/31 21:33:37;;;;;;;106.40;52.80;;;;;;;7.72;59.08;98091.15;459253;1194;99044;-40
2021/10/31 21:43:43;;;;;;;67.20;36.50;;;;;;;7.76;59.29;98077.69;459488;1195;98653;-40
2021/10/31 21:53:51;;;;;;;81.80;40.80;;;;;;;7.80;59.46;98059.30;459339;1194;108573;-41
2021/10/31 22:03:59;;;;;;;101.60;50.10;;;;;;;7.73;59.71;98048.75;459556;1195;99053;-41
2021/10/31 22:24:30;;;;;;;101.20;48.30;;;;;;;7.26;60.69;98033.18;459327;1195;99060;-41
2021/10/31 22:34:37;;;;;;;107.90;49.70;;;;;;;7.12;60.89;98024.71;459492;1196;112108;-40
2021/10/31 22:45:02;;;;;;;74.50;38.80;;;;;;;6.98;61.44;98015.25;459176;1195;108872;-41
2021/10/31 22:55:11;;;;;;;70.60;36.20;;;;;;;6.99;61.89;98004.16;459695;1195;99133;-41
2021/10/31 23:05:18;;;;;;;91.10;44.40;;;;;;;7.00;61.94;97991.42;459744;1197;112160;-40
2021/10/31 23:15:26;;;;;;;87.10;43.50;;;;;;;6.86;62.21;97985.38;459720;1197;107435;-41
2021/10/31 23:25:51;;;;;;;84.00;40.40;;;;;;;6.84;62.41;97974.80;459508;1195;99594;-41
2021/10/31 23:36:00;;;;;;;80.00;41.80;;;;;;;6.81;62.37;97973.23;459309;1197;112238;-41
2021/10/31 23:46:07;;;;;;;;;;;;;;;6.78;62.51;97966.44;459819;1197;106784;-41
2021/10/31 23:56:14;;;;;;;59.40;32.10;;;;;;;6.82;62.39;97960.76;459449;1197;99031;-43
